Terminal Aerodrome Forecast
Issued by NWS Omaha/Valley, NE

Home | Current Version | Previous Version | Graphics & Text | Print | Product List | Glossary On
Versions: 1 2 3 4 5 6 7 8 9 10 11 12 13 14 15 16 17 18 19 20 21 22 23 24 25 26 27 28 29 30 31 32 33 34 35 36 37 38 39 40 41 42 43 44 45 46
000
FTUS43 KOAX 222205 AAB
TAFOFK
TAF AMD
KOFK 222205Z 2222/2318 12009KT P6SM OVC080
      TEMPO 2222/2224 6SM -RA OVC040
     FM230700 15005KT P6SM OVC025
     FM231200 14006KT 4SM BR OVC007
     FM231500 14009KT P6SM OVC015=

USA.gov is the U.S. government's official web portal to all federal, state and local government web resources and services.